Time;durP1;ratioP1;P1;durP2;ratioP2;P2;SDS_P1;SDS_P2;PMS_P1;PMS_P2;Temp;Humidity;BMP_temperature;BMP_pressure;BME280_temperature;BME280_humidity;BME280_pressure;Samples;Min_cycle;Max_cycle;Signal;HPM_P1;HPM_P2
2023/08/08 00:02:02;;;;;;;;;;;17.30;99.90;;;;;;4929821;28;19930;-75
2023/08/08 00:04:27;;;;;;;;;;;17.30;99.90;;;;;;4957945;28;19933;-75
2023/08/08 00:06:53;;;;;;;;;;;17.10;99.90;;;;;;4958611;28;20036;-75
2023/08/08 00:09:19;;;;;;;;;;;17.10;99.90;;;;;;4961736;28;20001;-75
2023/08/08 00:11:44;;;;;;;;;;;17.00;99.90;;;;;;4954014;28;19923;-75
2023/08/08 00:14:10;;;;;;;;;;;17.00;99.90;;;;;;4948170;28;19917;-75
2023/08/08 00:16:35;;;;;;;;;;;17.00;99.90;;;;;;4950867;28;19969;-75
2023/08/08 00:19:01;;;;;;;;;;;16.90;99.90;;;;;;4976716;28;19989;-75
2023/08/08 00:21:27;;;;;;;;;;;16.90;99.90;;;;;;4955978;28;19929;-75
2023/08/08 00:23:52;;;;;;;;;;;16.80;99.90;;;;;;4937369;29;20006;-76
2023/08/08 00:26:18;;;;;;;;;;;16.80;99.90;;;;;;4980387;28;19926;-75
2023/08/08 00:28:43;;;;;;;;;;;16.80;99.90;;;;;;4952581;28;20249;-75
2023/08/08 00:31:09;;;;;;;;;;;16.80;99.90;;;;;;4954397;28;19922;-76
2023/08/08 00:33:35;;;;;;;;;;;16.90;99.90;;;;;;4944795;28;19921;-75
2023/08/08 00:36:00;;;;;;;;;;;16.90;99.90;;;;;;4959522;28;20516;-75
2023/08/08 00:38:26;;;;;;;;;;;17.00;99.90;;;;;;4946745;28;19926;-75
2023/08/08 00:40:52;;;;;;;;;;;17.10;99.90;;;;;;4940134;28;19977;-75
2023/08/08 00:43:17;;;;;;;;;;;17.10;99.90;;;;;;4961104;28;19933;-75
2023/08/08 00:45:44;;;;;;;;;;;17.20;99.90;;;;;;4961446;28;19969;-75
2023/08/08 00:48:10;;;;;;;;;;;17.20;99.90;;;;;;4956469;28;20387;-76
2023/08/08 00:50:36;;;;;;;;;;;17.30;99.90;;;;;;4950410;28;20086;-75
2023/08/08 00:53:02;;;;;;;;;;;17.30;99.90;;;;;;4957131;28;20046;-75
2023/08/08 00:55:28;;;;;;;;;;;17.30;99.90;;;;;;4954834;28;19926;-75
2023/08/08 00:57:54;;;;;;;;;;;17.40;99.90;;;;;;4950135;28;19930;-76
2023/08/08 01:00:19;;;;;;;;;;;17.40;99.90;;;;;;4959666;28;20867;-76
2023/08/08 01:02:45;;;;;;;;;;;17.40;99.90;;;;;;4948802;28;19948;-75
2023/08/08 01:05:11;;;;;;;;;;;17.40;99.90;;;;;;4947516;28;20505;-75
2023/08/08 01:07:54;;;;;;;;;;;17.50;99.90;;;;;;4952695;28;20413;-75
2023/08/08 01:10:27;;;;;;;;;;;17.50;99.90;;;;;;4954563;28;19926;-75
2023/08/08 01:12:59;;;;;;;;;;;17.50;99.90;;;;;;4952894;28;19926;-75
2023/08/08 01:15:25;;;;;;;;;;;17.50;99.90;;;;;;4964349;28;19924;-74
2023/08/08 01:17:51;;;;;;;;;;;17.50;99.90;;;;;;4950304;28;19926;-75
2023/08/08 01:20:18;;;;;;;;;;;17.50;99.90;;;;;;4964486;28;19922;-75
2023/08/08 01:23:01;;;;;;;;;;;17.50;99.90;;;;;;4949720;28;19926;-76
2023/08/08 01:25:26;;;;;;;;;;;17.50;99.90;;;;;;4934187;29;20394;-75
2023/08/08 01:27:52;;;;;;;;;;;17.50;99.90;;;;;;4933833;28;19922;-76
2023/08/08 01:30:17;;;;;;;;;;;17.50;99.90;;;;;;4938675;28;19953;-76
2023/08/08 01:32:43;;;;;;;;;;;17.50;99.90;;;;;;4953161;28;20656;-75
2023/08/08 01:35:09;;;;;;;;;;;17.50;99.90;;;;;;4944092;28;19922;-76
2023/08/08 01:37:56;;;;;;;;;;;17.50;99.90;;;;;;4957814;28;19922;-75
2023/08/08 01:40:22;;;;;;;;;;;17.50;99.90;;;;;;4977005;28;19926;-75
2023/08/08 01:42:48;;;;;;;;;;;17.50;99.90;;;;;;4955578;28;19933;-75
2023/08/08 01:45:15;;;;;;;;;;;17.50;99.90;;;;;;4945861;28;20475;-76
2023/08/08 01:47:41;;;;;;;;;;;17.50;99.90;;;;;;4952884;28;19922;-75
2023/08/08 01:50:07;;;;;;;;;;;17.60;99.90;;;;;;4953879;28;19922;-76
2023/08/08 01:52:33;;;;;;;;;;;17.50;99.90;;;;;;4952839;28;20333;-76
2023/08/08 01:54:58;;;;;;;;;;;17.50;99.90;;;;;;4954727;28;19922;-75
2023/08/08 01:57:24;;;;;;;;;;;19.30;99.90;;;;;;4946724;28;20013;-75
2023/08/08 01:59:49;;;;;;;;;;;17.50;99.90;;;;;;4943667;28;20427;-76
2023/08/08 02:02:17;;;;;;;;;;;17.50;99.90;;;;;;4950618;28;19969;-76
2023/08/08 02:04:42;;;;;;;;;;;17.50;99.90;;;;;;4958977;28;20397;-75
2023/08/08 02:07:08;;;;;;;;;;;17.50;99.90;;;;;;4961870;28;19922;-75
2023/08/08 02:09:33;;;;;;;;;;;17.50;99.90;;;;;;4958384;28;19928;-75
2023/08/08 02:11:59;;;;;;;;;;;17.50;99.90;;;;;;4958802;28;19952;-76
2023/08/08 02:14:25;;;;;;;;;;;17.50;99.90;;;;;;4963741;28;20387;-76
2023/08/08 02:16:50;;;;;;;;;;;17.50;99.90;;;;;;4950351;28;20406;-75
2023/08/08 02:19:16;;;;;;;;;;;17.50;99.90;;;;;;4959966;28;19933;-75
2023/08/08 02:21:41;;;;;;;;;;;17.50;99.90;;;;;;4948830;28;19984;-75
2023/08/08 02:24:07;;;;;;;;;;;17.50;99.90;;;;;;4932698;28;20402;-75
2023/08/08 02:26:33;;;;;;;;;;;17.50;99.90;;;;;;4950276;28;20565;-75
2023/08/08 02:28:59;;;;;;;;;;;17.50;99.90;;;;;;4963721;28;19929;-76
2023/08/08 02:31:25;;;;;;;;;;;17.50;99.90;;;;;;4958888;28;19922;-76
2023/08/08 02:33:51;;;;;;;;;;;17.50;99.90;;;;;;4950050;28;20394;-75
2023/08/08 02:36:17;;;;;;;;;;;17.50;99.90;;;;;;4951903;28;20543;-76
2023/08/08 02:38:43;;;;;;;;;;;17.50;99.90;;;;;;4960075;28;19929;-75
2023/08/08 02:41:08;;;;;;;;;;;17.50;99.90;;;;;;4949798;28;19922;-76
2023/08/08 02:43:34;;;;;;;;;;;17.50;99.90;;;;;;4947437;28;20005;-75
2023/08/08 02:45:59;;;;;;;;;;;17.50;99.90;;;;;;4946444;28;20398;-75
2023/08/08 02:48:25;;;;;;;;;;;17.50;99.90;;;;;;4934012;28;19969;-75
2023/08/08 02:50:51;;;;;;;;;;;17.40;99.90;;;;;;4942205;28;19922;-75
2023/08/08 02:53:16;;;;;;;;;;;17.40;99.90;;;;;;4956410;28;20678;-75
2023/08/08 02:55:42;;;;;;;;;;;17.40;99.90;;;;;;4940947;28;19976;-75
2023/08/08 02:58:07;;;;;;;;;;;17.40;99.90;;;;;;4957262;28;20004;-75
2023/08/08 03:00:33;;;;;;;;;;;17.40;99.90;;;;;;4952948;28;20425;-75
2023/08/08 03:02:59;;;;;;;;;;;17.40;99.90;;;;;;4961204;28;19926;-75
2023/08/08 03:05:24;;;;;;;;;;;17.40;99.90;;;;;;4939997;28;19964;-76
2023/08/08 03:07:50;;;;;;;;;;;17.40;99.90;;;;;;4963033;28;20013;-76
2023/08/08 03:10:15;;;;;;;;;;;17.40;99.90;;;;;;4954951;28;19978;-75
2023/08/08 03:12:41;;;;;;;;;;;17.40;99.90;;;;;;4947315;28;19922;-75
2023/08/08 03:15:07;;;;;;;;;;;17.40;99.90;;;;;;4965825;28;19953;-75
2023/08/08 03:17:33;;;;;;;;;;;17.40;99.90;;;;;;4966467;28;20295;-76
2023/08/08 03:19:58;;;;;;;;;;;17.40;99.90;;;;;;4963376;28;20467;-75
2023/08/08 03:22:24;;;;;;;;;;;17.40;99.90;;;;;;4947175;28;20513;-76
2023/08/08 03:24:49;;;;;;;;;;;17.40;99.90;;;;;;4950703;28;20002;-75
2023/08/08 03:27:15;;;;;;;;;;;17.40;99.90;;;;;;4956713;28;19926;-75
2023/08/08 03:29:41;;;;;;;;;;;17.40;99.90;;;;;;4939287;28;19922;-75
2023/08/08 03:32:06;;;;;;;;;;;17.40;99.90;;;;;;4950904;28;19922;-76
2023/08/08 03:34:32;;;;;;;;;;;17.40;99.90;;;;;;4948711;28;19922;-76
2023/08/08 03:36:58;;;;;;;;;;;17.40;99.90;;;;;;4946923;28;19996;-76
2023/08/08 03:39:23;;;;;;;;;;;17.40;99.90;;;;;;4952856;28;19929;-75
2023/08/08 03:41:49;;;;;;;;;;;17.40;99.90;;;;;;4961152;28;19928;-75
2023/08/08 03:44:14;;;;;;;;;;;17.40;99.90;;;;;;4942852;28;20052;-75
2023/08/08 03:46:40;;;;;;;;;;;17.40;99.90;;;;;;4958000;28;19968;-75
2023/08/08 03:49:06;;;;;;;;;;;17.40;99.90;;;;;;4948601;28;19921;-75
2023/08/08 03:51:31;;;;;;;;;;;17.30;99.90;;;;;;4948897;28;19921;-75
2023/08/08 03:53:57;;;;;;;;;;;17.40;99.90;;;;;;4954703;28;20370;-75
2023/08/08 03:56:22;;;;;;;;;;;17.40;99.90;;;;;;4957460;28;19922;-75
2023/08/08 03:58:48;;;;;;;;;;;17.30;99.90;;;;;;4942094;28;20121;-75
2023/08/08 04:01:14;;;;;;;;;;;17.30;99.90;;;;;;4957429;28;20324;-75
2023/08/08 04:03:39;;;;;;;;;;;17.30;99.90;;;;;;4935856;28;19932;-75
2023/08/08 04:06:05;;;;;;;;;;;17.30;99.90;;;;;;4943237;28;20057;-75
2023/08/08 04:08:31;;;;;;;;;;;17.30;99.90;;;;;;4937043;28;19925;-75
2023/08/08 04:10:57;;;;;;;;;;;17.30;99.90;;;;;;4942663;28;20278;-75
2023/08/08 04:13:23;;;;;;;;;;;17.30;99.90;;;;;;4952813;28;19922;-75
2023/08/08 04:15:51;;;;;;;;;;;17.30;99.90;;;;;;4949650;28;20401;-75
2023/08/08 04:18:17;;;;;;;;;;;17.30;99.90;;;;;;4950193;28;20505;-75
2023/08/08 04:20:43;;;;;;;;;;;17.30;99.90;;;;;;4951690;28;19922;-75
2023/08/08 04:23:08;;;;;;;;;;;17.30;99.90;;;;;;4953096;28;20406;-75
2023/08/08 04:25:34;;;;;;;;;;;17.30;99.90;;;;;;4946862;28;19922;-75
2023/08/08 04:27:59;;;;;;;;;;;17.30;99.90;;;;;;4937105;28;19923;-76
2023/08/08 04:30:25;;;;;;;;;;;17.30;99.90;;;;;;4962809;28;20079;-75
2023/08/08 04:32:51;;;;;;;;;;;17.30;99.90;;;;;;4940468;28;19929;-76
2023/08/08 04:35:16;;;;;;;;;;;17.30;99.90;;;;;;4955471;28;19926;-75
2023/08/08 04:37:43;;;;;;;;;;;17.30;99.90;;;;;;4957649;28;20028;-75
2023/08/08 04:40:09;;;;;;;;;;;17.30;99.90;;;;;;4961141;28;20717;-76
2023/08/08 04:42:34;;;;;;;;;;;17.20;99.90;;;;;;4940087;28;20057;-75
2023/08/08 04:45:00;;;;;;;;;;;17.20;99.90;;;;;;4949139;28;20395;-76
2023/08/08 04:47:25;;;;;;;;;;;17.10;99.90;;;;;;4955968;28;19929;-76
2023/08/08 04:49:51;;;;;;;;;;;17.10;99.90;;;;;;4955874;28;20663;-75
2023/08/08 04:52:16;;;;;;;;;;;17.10;99.90;;;;;;4939383;28;19976;-75
2023/08/08 04:54:42;;;;;;;;;;;17.10;99.90;;;;;;4958253;28;19929;-76
2023/08/08 04:57:08;;;;;;;;;;;17.10;99.90;;;;;;4945654;28;19929;-75
2023/08/08 04:59:34;;;;;;;;;;;17.10;99.90;;;;;;4945798;28;19954;-75
2023/08/08 05:01:59;;;;;;;;;;;17.10;99.90;;;;;;4953256;28;19926;-75
2023/08/08 05:04:25;;;;;;;;;;;17.20;99.90;;;;;;4944365;28;20396;-75
2023/08/08 05:06:50;;;;;;;;;;;17.10;99.90;;;;;;4945558;28;19932;-75
2023/08/08 05:09:16;;;;;;;;;;;17.20;99.90;;;;;;4953809;28;19922;-76
2023/08/08 05:11:41;;;;;;;;;;;17.20;99.90;;;;;;4945683;28;19957;-75
2023/08/08 05:14:07;;;;;;;;;;;17.20;99.90;;;;;;4927288;28;20017;-75
2023/08/08 05:16:33;;;;;;;;;;;17.20;99.90;;;;;;4951141;28;19977;-75
2023/08/08 05:18:58;;;;;;;;;;;17.20;99.90;;;;;;4956894;28;19973;-75
2023/08/08 05:21:24;;;;;;;;;;;17.20;99.90;;;;;;4960852;28;19933;-75
2023/08/08 05:23:49;;;;;;;;;;;17.20;99.90;;;;;;4941682;28;20734;-76
2023/08/08 05:26:15;;;;;;;;;;;17.20;99.90;;;;;;4954041;28;19949;-75
2023/08/08 05:28:41;;;;;;;;;;;17.30;99.90;;;;;;4951223;28;19997;-75
2023/08/08 05:31:07;;;;;;;;;;;17.30;99.90;;;;;;4940568;28;19922;-75
2023/08/08 05:33:32;;;;;;;;;;;17.30;99.90;;;;;;4955160;28;19953;-75
2023/08/08 05:35:58;;;;;;;;;;;17.30;99.90;;;;;;4958583;28;19974;-75
2023/08/08 05:38:24;;;;;;;;;;;17.30;99.90;;;;;;4958192;28;20033;-75
2023/08/08 05:40:49;;;;;;;;;;;17.30;99.90;;;;;;4959436;28;20036;-74
2023/08/08 05:43:18;;;;;;;;;;;17.30;99.90;;;;;;4949988;28;20376;-76
2023/08/08 05:45:46;;;;;;;;;;;17.40;99.90;;;;;;4959997;28;20294;-74
2023/08/08 05:48:12;;;;;;;;;;;17.40;99.90;;;;;;4950317;28;19944;-75
2023/08/08 05:50:38;;;;;;;;;;;17.40;99.90;;;;;;4965318;28;20454;-75
2023/08/08 05:53:04;;;;;;;;;;;17.40;99.90;;;;;;4950572;28;19928;-75
2023/08/08 05:55:29;;;;;;;;;;;17.50;99.90;;;;;;4936944;28;19962;-75
2023/08/08 05:57:55;;;;;;;;;;;17.50;99.90;;;;;;4950052;28;19921;-75
2023/08/08 06:00:21;;;;;;;;;;;17.50;99.90;;;;;;4953127;28;19922;-75
2023/08/08 06:02:46;;;;;;;;;;;17.50;99.90;;;;;;4956443;28;20048;-75
2023/08/08 06:05:12;;;;;;;;;;;17.50;99.90;;;;;;4941771;28;19965;-75
2023/08/08 06:07:38;;;;;;;;;;;17.60;99.90;;;;;;4964795;28;20000;-75
2023/08/08 06:10:04;;;;;;;;;;;17.60;99.90;;;;;;4949503;28;20071;-75
2023/08/08 06:12:29;;;;;;;;;;;17.60;99.90;;;;;;4951775;28;19918;-75
2023/08/08 06:14:55;;;;;;;;;;;17.60;99.90;;;;;;4953705;28;19933;-75
2023/08/08 06:17:23;;;;;;;;;;;17.70;99.90;;;;;;4948584;28;20024;-75
2023/08/08 06:19:49;;;;;;;;;;;17.70;99.90;;;;;;4948623;28;19921;-74
2023/08/08 06:22:15;;;;;;;;;;;17.70;99.90;;;;;;4954093;28;19948;-75
2023/08/08 06:24:41;;;;;;;;;;;17.70;99.90;;;;;;4940530;28;20663;-75
2023/08/08 06:27:07;;;;;;;;;;;18.10;99.90;;;;;;4957620;28;19929;-75
2023/08/08 06:29:32;;;;;;;;;;;17.70;99.90;;;;;;4948792;28;20008;-75
2023/08/08 06:31:58;;;;;;;;;;;17.70;99.90;;;;;;4949164;28;19937;-75
2023/08/08 06:34:23;;;;;;;;;;;17.70;99.90;;;;;;4953118;28;20000;-75
2023/08/08 06:36:49;;;;;;;;;;;17.80;99.90;;;;;;4947735;28;20630;-75
2023/08/08 06:39:15;;;;;;;;;;;17.80;99.90;;;;;;4952921;28;19914;-75
2023/08/08 06:41:41;;;;;;;;;;;17.80;99.90;;;;;;4948803;28;19981;-75
2023/08/08 06:44:07;;;;;;;;;;;17.80;99.90;;;;;;4948905;28;19972;-75
2023/08/08 06:46:32;;;;;;;;;;;17.90;99.90;;;;;;4955997;28;19923;-75
2023/08/08 06:48:59;;;;;;;;;;;17.90;99.90;;;;;;4956017;28;19922;-75
2023/08/08 06:51:25;;;;;;;;;;;17.90;99.90;;;;;;4961815;28;19922;-75
2023/08/08 06:53:51;;;;;;;;;;;17.90;99.90;;;;;;4938768;28;19924;-75
2023/08/08 06:56:17;;;;;;;;;;;17.90;99.90;;;;;;4958891;28;19953;-75
2023/08/08 06:58:43;;;;;;;;;;;18.00;99.90;;;;;;4957431;28;19962;-75
2023/08/08 07:01:09;;;;;;;;;;;18.00;99.90;;;;;;4948844;28;19943;-75
2023/08/08 07:03:35;;;;;;;;;;;18.00;99.90;;;;;;4949367;28;19952;-75
2023/08/08 07:06:01;;;;;;;;;;;18.00;99.90;;;;;;4965241;28;19922;-75
2023/08/08 07:08:26;;;;;;;;;;;18.00;99.90;;;;;;4949646;28;19918;-74
2023/08/08 07:10:52;;;;;;;;;;;18.10;99.90;;;;;;4940040;29;19922;-75
2023/08/08 07:13:17;;;;;;;;;;;18.10;99.90;;;;;;4953449;28;20266;-75
2023/08/08 07:15:43;;;;;;;;;;;18.10;99.90;;;;;;4957597;28;19983;-74
2023/08/08 07:18:09;;;;;;;;;;;18.10;99.90;;;;;;4960039;28;19948;-75
2023/08/08 07:20:34;;;;;;;;;;;18.00;99.90;;;;;;4946650;28;20893;-74
2023/08/08 07:23:01;;;;;;;;;;;18.20;99.90;;;;;;4961880;28;19926;-74
2023/08/08 07:25:26;;;;;;;;;;;18.30;99.90;;;;;;4956980;28;20529;-75
2023/08/08 07:27:52;;;;;;;;;;;18.30;99.90;;;;;;4944671;28;19955;-75
2023/08/08 07:30:18;;;;;;;;;;;18.30;99.90;;;;;;4962570;28;19922;-75
2023/08/08 07:32:43;;;;;;;;;;;18.40;99.90;;;;;;4947649;28;20554;-75
2023/08/08 07:35:10;;;;;;;;;;;19.90;99.90;;;;;;4959302;28;19922;-75
2023/08/08 07:37:36;;;;;;;;;;;18.40;99.90;;;;;;4946533;28;19922;-75
2023/08/08 07:40:02;;;;;;;;;;;18.50;99.90;;;;;;4947874;28;19932;-75
2023/08/08 07:42:27;;;;;;;;;;;18.50;99.90;;;;;;4945968;28;20395;-75
2023/08/08 07:44:53;;;;;;;;;;;18.50;99.90;;;;;;4961806;28;20302;-75
2023/08/08 07:47:19;;;;;;;;;;;18.50;99.90;;;;;;4959812;28;19977;-74
2023/08/08 07:49:44;;;;;;;;;;;18.50;99.90;;;;;;4961268;28;20749;-75
2023/08/08 07:52:10;;;;;;;;;;;18.50;99.90;;;;;;4946553;28;20009;-75
2023/08/08 07:54:35;;;;;;;;;;;18.60;99.90;;;;;;4958427;28;20035;-74
2023/08/08 07:57:01;;;;;;;;;;;18.50;99.90;;;;;;4945607;28;19922;-75
2023/08/08 07:59:27;;;;;;;;;;;18.50;99.90;;;;;;4962819;28;19942;-75
2023/08/08 08:01:52;;;;;;;;;;;18.60;99.90;;;;;;4947015;28;19929;-75
2023/08/08 08:04:18;;;;;;;;;;;18.60;99.90;;;;;;4958368;28;19934;-75
2023/08/08 08:06:44;;;;;;;;;;;18.60;99.90;;;;;;4962591;28;19921;-75
2023/08/08 08:09:09;;;;;;;;;;;18.70;99.90;;;;;;4946866;28;20778;-74
2023/08/08 08:11:35;;;;;;;;;;;18.70;99.90;;;;;;4953919;28;19922;-75
2023/08/08 08:14:00;;;;;;;;;;;18.70;99.90;;;;;;4955889;28;19922;-69
2023/08/08 08:16:26;;;;;;;;;;;18.70;99.90;;;;;;4958769;28;19921;-68
2023/08/08 08:18:52;;;;;;;;;;;18.70;99.90;;;;;;4953912;28;19921;-67
2023/08/08 08:21:17;;;;;;;;;;;18.70;99.90;;;;;;4940976;28;19929;-68
2023/08/08 08:23:44;;;;;;;;;;;18.70;99.90;;;;;;4939260;28;19921;-69
2023/08/08 08:26:10;;;;;;;;;;;18.70;99.90;;;;;;4937002;28;19929;-68
2023/08/08 08:28:35;;;;;;;;;;;18.70;99.90;;;;;;4960584;28;19922;-68
2023/08/08 08:31:05;;;;;;;;;;;18.70;99.90;;;;;;4950235;28;20036;-68
2023/08/08 08:33:30;;;;;;;;;;;18.80;99.90;;;;;;4954329;28;20383;-69
2023/08/08 08:35:56;;;;;;;;;;;18.80;99.90;;;;;;4944385;28;19933;-68
2023/08/08 08:38:21;;;;;;;;;;;18.80;99.90;;;;;;4960048;28;20331;-68
2023/08/08 08:40:48;;;;;;;;;;;18.90;99.90;;;;;;4953417;28;19926;-71
2023/08/08 08:43:15;;;;;;;;;;;18.90;99.90;;;;;;4939864;28;20021;-72
2023/08/08 08:45:41;;;;;;;;;;;18.80;99.90;;;;;;4944644;28;19926;-72
2023/08/08 08:48:10;;;;;;;;;;;18.80;99.90;;;;;;4951587;28;20666;-71
2023/08/08 08:50:36;;;;;;;;;;;18.80;99.90;;;;;;4952798;28;20451;-71
2023/08/08 08:53:02;;;;;;;;;;;18.70;99.90;;;;;;4951796;28;20048;-70
2023/08/08 08:55:27;;;;;;;;;;;18.70;99.90;;;;;;4941218;28;20272;-72
2023/08/08 08:57:53;;;;;;;;;;;18.70;99.90;;;;;;4958033;28;20016;-71
2023/08/08 09:00:19;;;;;;;;;;;18.70;99.90;;;;;;4960530;28;19929;-71
2023/08/08 09:02:44;;;;;;;;;;;18.60;99.90;;;;;;4954034;28;19933;-71
2023/08/08 09:05:11;;;;;;;;;;;18.60;99.90;;;;;;4948114;28;19930;-71
2023/08/08 09:07:37;;;;;;;;;;;18.60;99.90;;;;;;4944679;28;19929;-70
2023/08/08 09:10:03;;;;;;;;;;;18.50;99.90;;;;;;4944712;28;19922;-74
2023/08/08 09:12:31;;;;;;;;;;;18.50;99.90;;;;;;4959131;28;20029;-73
2023/08/08 09:14:57;;;;;;;;;;;18.50;99.90;;;;;;4949580;28;19931;-75
2023/08/08 09:17:25;;;;;;;;;;;18.40;99.90;;;;;;4940502;28;19925;-76
2023/08/08 09:19:52;;;;;;;;;;;18.40;99.90;;;;;;4944940;28;19922;-75
2023/08/08 09:22:18;;;;;;;;;;;18.40;99.90;;;;;;4959532;28;19921;-75
2023/08/08 09:24:46;;;;;;;;;;;18.40;99.90;;;;;;4956773;28;20706;-75
2023/08/08 09:27:12;;;;;;;;;;;18.40;99.90;;;;;;4957478;28;20105;-76
2023/08/08 09:29:37;;;;;;;;;;;18.50;99.90;;;;;;4941673;28;20686;-75
2023/08/08 09:32:04;;;;;;;;;;;18.50;99.90;;;;;;4962799;28;19922;-75
2023/08/08 09:34:30;;;;;;;;;;;18.60;99.90;;;;;;4962145;28;20712;-75
2023/08/08 09:36:55;;;;;;;;;;;18.60;99.90;;;;;;4951434;28;19965;-75
2023/08/08 09:39:21;;;;;;;;;;;18.60;99.90;;;;;;4922796;28;19925;-74
2023/08/08 09:41:47;;;;;;;;;;;18.60;99.90;;;;;;4958531;28;19930;-75
2023/08/08 09:45:41;;;;;;;4.13;0.30;;;18.70;99.90;;;;;;5088289;27;20990;-84
2023/08/08 09:48:07;;;;;;;4.97;0.57;;;18.80;99.90;;;;;;5069106;28;20048;-82
2023/08/08 09:50:34;;;;;;;3.95;0.30;;;18.80;99.90;;;;;;5068259;28;20047;-75
2023/08/08 09:53:02;;;;;;;2.92;0.55;;;18.90;99.90;;;;;;5050126;28;20047;-74
2023/08/08 09:55:30;;;;;;;2.85;0.20;;;19.00;99.90;;;;;;5051505;28;20051;-74
2023/08/08 09:57:57;;;;;;;4.15;0.20;;;19.00;99.90;;;;;;5051598;28;20043;-73
2023/08/08 10:00:25;;;;;;;3.33;0.30;;;;;;;;;;5069520;28;20096;-74
2023/08/08 10:02:51;;;;;;;3.45;0.25;;;19.10;99.90;;;;;;5067124;28;20068;-75
2023/08/08 10:05:17;;;;;;;2.78;0.43;;;19.20;99.90;;;;;;5059689;28;20128;-75
2023/08/08 10:07:43;;;;;;;2.63;0.25;;;19.20;99.90;;;;;;5097629;28;20044;-74
2023/08/08 10:10:09;;;;;;;2.40;0.20;;;19.60;99.90;;;;;;5048914;28;20123;-74
2023/08/08 10:12:40;;;;;;;4.20;0.20;;;19.30;99.90;;;;;;5059802;28;20046;-75
2023/08/08 10:15:10;;;;;;;3.55;0.50;;;19.30;99.90;;;;;;5067463;28;20036;-74
2023/08/08 10:17:40;;;;;;;1.92;0.20;;;19.40;99.90;;;;;;5050537;28;20040;-75
2023/08/08 10:20:11;;;;;;;2.90;0.17;;;19.40;99.90;;;;;;5052148;28;20531;-74
2023/08/08 10:22:41;;;;;;;2.63;0.20;;;19.40;99.90;;;;;;5050611;28;20157;-74
2023/08/08 10:25:08;;;;;;;1.35;0.20;;;19.40;99.90;;;;;;5051369;28;20127;-74
2023/08/08 10:27:36;;;;;;;3.35;0.10;;;19.50;99.90;;;;;;5099127;28;20093;-73
2023/08/08 10:31:09;;;;;;;;;;;;;;;;;;;;;
2023/08/08 10:34:24;;;;;;;2.30;0.75;;;18.70;99.90;;;;;;4957313;28;20090;-77
2023/08/08 10:37:43;;;;;;;2.60;0.30;;;19.50;99.90;;;;;;4903957;28;20051;-74
2023/08/08 10:40:17;;;;;;;4.07;0.30;;;19.20;99.90;;;;;;4890555;28;20110;-75
2023/08/08 10:43:43;;;;;;;2.20;0.27;;;19.50;99.90;;;;;;4909601;28;20047;-74
2023/08/08 10:48:08;;;;;;;;;;;;;;;;;;;;;
2023/08/08 10:50:44;;;;;;;4.88;0.30;;;22.10;99.90;;;;;;4908522;29;20517;-75
2023/08/08 10:53:13;;;;;;;4.55;0.40;;;19.80;99.90;;;;;;4934674;28;20063;-76
2023/08/08 10:55:44;;;;;;;3.08;0.28;;;16.40;99.90;;;;;;4918416;28;20159;-77
2023/08/08 10:59:12;;;;;;;6.68;0.47;;;19.60;99.90;;;;;;4951021;28;20283;-78
2023/08/08 11:01:56;;;;;;;3.33;0.40;;;19.40;99.90;;;;;;4869817;29;20130;-79
2023/08/08 11:08:25;;;;;;;2.80;0.52;;;19.40;99.90;;;;;;4830469;29;20052;-79
2023/08/08 11:11:04;;;;;;;3.60;0.70;;;20.60;99.90;;;;;;4843291;29;20076;-79
2023/08/08 11:14:01;;;;;;;1.80;0.20;;;20.90;99.90;;;;;;4887583;29;20051;-80
2023/08/08 11:16:42;;;;;;;7.25;0.65;;;18.20;99.90;;;;;;4943683;28;20055;-75
2023/08/08 11:22:52;;;;;;;7.53;0.40;;;20.50;99.90;;;;;;4979946;28;20048;-91
2023/08/08 11:32:52;;;;;;;4.18;0.40;;;17.60;99.90;;;;;;5005578;28;20088;-85
2023/08/08 11:35:21;;;;;;;3.35;0.60;;;18.50;99.90;;;;;;5010298;28;20049;-88
2023/08/08 11:37:49;;;;;;;7.38;0.73;;;18.50;99.90;;;;;;5012678;28;20102;-87
2023/08/08 11:40:19;;;;;;;4.90;0.75;;;21.10;99.90;;;;;;5000714;28;20076;-85
2023/08/08 11:42:46;;;;;;;3.42;0.60;;;18.90;99.90;;;;;;4999693;28;20826;-87
2023/08/08 11:45:13;;;;;;;4.10;0.22;;;18.80;99.90;;;;;;4998227;28;20135;-86
2023/08/08 11:47:39;;;;;;;3.33;0.38;;;18.80;99.90;;;;;;5007466;28;20037;-85
2023/08/08 11:50:11;;;;;;;4.93;0.77;;;18.90;99.90;;;;;;5007042;28;20050;-86
2023/08/08 11:52:59;;;;;;;2.47;0.30;;;18.70;99.90;;;;;;4993554;28;20865;-86
2023/08/08 12:00:43;;;;;;;;;;;;;;;;;;;;;
2023/08/08 12:22:45;;;;;;;3.55;0.60;;;19.20;99.90;;;;;;4828716;29;20068;-84
2023/08/08 12:25:44;;;;;;;4.57;0.30;;;18.80;99.90;;;;;;4771878;29;20106;-84
2023/08/08 12:28:59;;;;;;;5.78;0.35;;;19.20;99.90;;;;;;4763925;29;20089;-86
2023/08/08 12:35:44;;;;;;;5.25;0.30;;;19.00;99.90;;;;;;4761974;29;20057;-89
2023/08/08 12:38:14;;;;;;;3.92;0.32;;;;;;;;;;4853247;28;20582;-89
2023/08/08 12:40:40;;;;;;;6.47;0.52;;;19.10;99.90;;;;;;4979474;28;20060;-88
2023/08/08 12:48:11;;;;;;;4.05;0.32;;;19.40;99.90;;;;;;5038012;28;20156;-88
2023/08/08 12:51:47;;;;;;;4.68;0.30;;;18.60;99.90;;;;;;4999681;28;20076;-87
2023/08/08 12:54:13;;;;;;;4.20;0.20;;;18.50;99.90;;;;;;4953254;28;20429;-89
2023/08/08 13:11:28;;;;;;;3.00;0.20;;;18.50;99.90;;;;;;4886910;29;20778;-88
2023/08/08 13:14:53;;;;;;;3.40;0.32;;;18.80;99.90;;;;;;4912323;29;20048;-89
2023/08/08 13:25:34;;;;;;;4.45;0.32;;;18.70;99.50;;;;;;4924095;29;20086;-91
2023/08/08 13:28:02;;;;;;;1.00;0.25;;;18.50;99.40;;;;;;4923627;29;20067;-91
2023/08/08 13:34:40;;;;;;;2.58;0.20;;;17.80;98.90;;;;;;4979606;28;20157;-90
2023/08/08 13:44:03;;;;;;;4.53;0.60;;;;;;;;;;4923513;28;20680;-89
2023/08/08 13:50:26;;;;;;;4.65;0.63;;;18.10;99.90;;;;;;5043053;28;20118;-89
2023/08/08 13:52:59;;;;;;;6.77;0.60;;;18.10;99.90;;;;;;5008374;28;20064;-90
2023/08/08 13:59:20;;;;;;;2.78;0.80;;;;;;;;;;5019922;28;20037;-87
2023/08/08 14:05:30;;;;;;;4.47;0.45;;;18.50;99.90;;;;;;5016578;28;20923;-92
2023/08/08 14:08:03;;;;;;;5.13;0.50;;;18.60;99.90;;;;;;5012447;28;20042;-89
2023/08/08 14:10:35;;;;;;;2.97;0.30;;;18.60;99.70;;;;;;5014498;28;20115;-92
2023/08/08 14:13:11;;;;;;;4.50;0.70;;;18.50;98.80;;;;;;5003520;28;20041;-89
2023/08/08 14:22:50;;;;;;;3.15;0.32;;;;;;;;;;5020061;28;20145;-90
2023/08/08 14:28:39;;;;;;;;;;;18.30;98.60;;;;;;5026469;28;20072;-90
2023/08/08 14:31:08;;;;;;;4.50;0.32;;;;;;;;;;5019675;28;19925;-89
2023/08/08 14:33:40;;;;;;;;;;;18.30;99.10;;;;;;5021894;28;20095;-91
2023/08/08 14:36:10;;;;;;;5.00;0.60;;;;;;;;;;5055114;28;20101;-93
2023/08/08 14:38:45;;;;;;;4.10;1.40;;;14.90;98.30;;;;;;5028618;28;20041;-90
2023/08/08 14:41:19;;;;;;;3.30;0.40;;;18.30;99.00;;;;;;5038879;28;20038;-94
2023/08/08 14:43:48;;;;;;;2.97;0.63;;;18.40;99.10;;;;;;5033209;28;20832;-87
2023/08/08 14:46:14;;;;;;;4.05;0.40;;;18.30;99.90;;;;;;5026003;28;20160;-90
2023/08/08 14:48:44;;;;;;;5.60;1.02;;;;;;;;;;5028343;28;20140;-91
2023/08/08 14:54:51;;;;;;;6.60;0.60;;;;;;;;;;5043122;28;20079;-92
2023/08/08 14:57:23;;;;;;;3.83;0.30;;;;;;;;;;5032230;28;20044;-90
2023/08/08 15:00:16;;;;;;;3.88;0.40;;;18.70;98.50;;;;;;5043861;28;20052;-93
2023/08/08 15:03:05;;;;;;;3.47;0.30;;;;;;;;;;4996751;28;20099;-90
2023/08/08 15:05:48;;;;;;;2.75;0.30;;;;;;;;;;5005132;28;20048;-86
2023/08/08 15:08:44;;;;;;;5.28;0.30;;;;;;;;;;4994351;28;20514;-88
2023/08/08 15:11:13;;;;;;;4.90;0.40;;;;;;;;;;4996391;28;21274;-86
2023/08/08 15:13:39;;;;;;;2.38;0.25;;;;;;;;;;4992644;28;20076;-89
2023/08/08 15:24:01;;;;;;;4.03;0.40;;;17.70;98.50;;;;;;4987235;28;20048;-87
2023/08/08 15:27:10;;;;;;;;;;;;;;;;;;;;;
2023/08/08 15:37:27;;;;;;;3.78;0.40;;;;;;;;;;5047923;28;20743;-89
2023/08/08 15:44:42;;;;;;;3.38;0.30;;;17.90;99.00;;;;;;4986355;28;20337;-88
2023/08/08 15:47:24;;;;;;;4.55;0.20;;;17.80;99.40;;;;;;4995327;28;20199;-87
2023/08/08 15:50:19;;;;;;;1.60;0.30;;;;;;;;;;4971040;28;20046;-87
2023/08/08 15:53:04;;;;;;;3.42;0.20;;;;;;;;;;4984262;28;20108;-90
2023/08/08 16:22:02;;;;;;;;;;;;;;;;;;;;;
2023/08/08 16:29:21;;;;;;;8.63;1.23;;;16.70;99.30;;;;;;4916530;29;20038;-90
2023/08/08 16:32:40;;;;;;;4.55;0.40;;;16.50;99.20;;;;;;4927105;28;20126;-87
2023/08/08 16:35:32;;;;;;;4.93;0.57;;;16.40;99.30;;;;;;4971584;28;20046;-90
2023/08/08 16:37:59;;;;;;;2.85;0.20;;;;;;;;;;4944130;28;20053;-87
2023/08/08 16:44:52;;;;;;;8.98;0.30;;;16.00;99.70;;;;;;4980593;28;20087;-88
2023/08/08 16:54:36;;;;;;;2.60;0.30;;;16.00;99.90;;;;;;4980900;28;20092;-84
2023/08/08 17:00:27;;;;;;;2.90;0.30;;;;;;;;;;5008304;28;20049;-90
2023/08/08 17:03:33;;;;;;;4.10;0.40;;;16.00;99.90;;;;;;5029651;28;20031;-92
2023/08/08 17:09:23;;;;;;;6.85;0.40;;;;;;;;;;5044053;28;20206;-90
2023/08/08 17:12:09;;;;;;;5.07;0.82;;;;;;;;;;5017640;28;20052;-92
2023/08/08 17:14:38;;;;;;;4.43;0.30;;;;;;;;;;5038268;28;20945;-89
2023/08/08 17:17:25;;;;;;;5.43;0.43;;;;;;;;;;5038569;28;20120;-90